Obihiro Airport
RJCB : now visible

Airfield :











YOU CAN JOIN US ON...

 
LOGIN :

Register | Disclaimer

   EN    FR    IT 

 









Legend :    VFR   Marginal VFR   IFR   Intensive IFR   Very Intensive IFR
Visi :
Ceiling :
>= 8 km
>= 3000ft
5 to 8 km
1000 to 3000 ft
1500m to 5 km
500 to 1000 ft
800 to 1500m
200 to 500 ft
< 800m
< 200 ft
Symbols :   Thunderstorms  Fog  Heavy snow  Heavy precipitations  Wind > 20 kt







- Airport Elevation : 505 ft
- IATA code : OBO


RJCB - Obihiro

METAR N/A
TAF TAF RJCB
Valid from the 18 at 12:00 until the 19 at 18:00 UTC


181107Z 1812/1918 15006KT 9999 FEW003 BKN006
BECMG 1812/1814 3000 BR
TEMPO 1814/1822 0700 -SHRA FG VV001
BECMG 1900/1903 9999 NSW FEW008 BKN015
TEMPO 1906/1909 FEW003 BKN006
TEMPO 1909/1918 2000 -SHRA BR FEW003 BKN005
No reported NOTAMs for that airfield.



MET'MAP, your aeronautical weather chart ! - Copyright ORBIFLY December 2007 - Disclaimer

ORBIFLY MET'MAP TEAM :

Programming & Development : Alexandra Zaïnal
Concept & Development : Baudouin d'Aumeries
Co-Development & Prog : Marc-Olivier Méhu
Technical & hardware support : Manuel Goepfert

Contact : metmap@orbifly.com




SOURCES & CREDITS :

   NOAA       Earth
Advisory